createdAt,value
2018-08-10T00:00:59.918Z,19.97
2018-08-10T00:03:29.438Z,19.91
2018-08-10T00:05:58.350Z,19.86
2018-08-10T00:08:27.628Z,19.81
2018-08-10T00:10:56.439Z,19.79
2018-08-10T00:13:25.231Z,19.77
2018-08-10T00:15:54.095Z,19.77
2018-08-10T00:18:23.604Z,19.79
2018-08-10T00:20:52.351Z,19.82
2018-08-10T00:23:21.619Z,19.84
2018-08-10T00:25:51.475Z,19.87
2018-08-10T00:28:20.722Z,19.91
2018-08-10T00:30:49.556Z,19.93
2018-08-10T00:33:18.906Z,19.98
2018-08-10T00:35:49.470Z,20.00
2018-08-10T00:38:18.256Z,19.98
2018-08-10T00:40:47.619Z,19.96
2018-08-10T00:43:16.680Z,19.96
2018-08-10T00:45:45.801Z,19.96
2018-08-10T00:48:16.210Z,19.99
2018-08-10T00:50:45.752Z,19.99
2018-08-10T00:53:14.496Z,19.95
2018-08-10T00:55:43.799Z,19.89
2018-08-10T00:58:12.528Z,19.87
2018-08-10T01:00:41.288Z,19.84
2018-08-10T01:03:10.702Z,19.81
2018-08-10T01:05:39.516Z,19.80
2018-08-10T01:08:09.226Z,19.78
2018-08-10T01:10:38.049Z,19.74
2018-08-10T01:13:06.876Z,19.71
2018-08-10T01:15:35.660Z,19.70
2018-08-10T01:18:04.974Z,19.68
2018-08-10T01:20:33.788Z,19.69
2018-08-10T01:23:06.230Z,19.72
2018-08-10T01:25:35.651Z,19.75
2018-08-10T01:28:05.803Z,19.76
2018-08-10T01:30:35.652Z,19.77
2018-08-10T01:33:04.465Z,19.79
2018-08-10T01:35:33.407Z,19.83
2018-08-10T01:38:03.023Z,19.85
2018-08-10T01:40:32.015Z,19.87
2018-08-10T01:43:00.891Z,19.92
2018-08-10T01:45:29.695Z,19.93
2018-08-10T01:47:59.423Z,19.96
2018-08-10T01:50:28.658Z,19.97
2018-08-10T01:52:57.436Z,19.98
2018-08-10T01:55:27.039Z,19.97
2018-08-10T01:57:55.793Z,20.02
2018-08-10T02:00:24.603Z,20.03
2018-08-10T02:02:53.945Z,20.07
2018-08-10T02:05:22.706Z,20.10
2018-08-10T02:07:51.987Z,20.15
2018-08-10T02:10:20.828Z,20.19
2018-08-10T02:12:53.913Z,20.23
2018-08-10T02:15:23.272Z,20.29
2018-08-10T02:17:52.568Z,20.35
2018-08-10T02:20:22.826Z,20.44
2018-08-10T02:22:52.571Z,20.53
2018-08-10T02:25:24.730Z,20.59
2018-08-10T02:27:54.220Z,20.69
2018-08-10T02:30:23.331Z,20.75
2018-08-10T02:32:52.618Z,20.86
2018-08-10T02:35:21.489Z,20.94
2018-08-10T02:37:50.269Z,21.02
2018-08-10T02:40:21.647Z,21.10
2018-08-10T02:42:51.451Z,21.17
2018-08-10T02:45:20.684Z,21.25
2018-08-10T02:47:50.552Z,21.32
2018-08-10T02:50:19.872Z,21.39
2018-08-10T02:52:49.520Z,21.44
2018-08-10T02:55:18.831Z,21.51
2018-08-10T02:57:48.441Z,21.57
2018-08-10T03:00:18.279Z,21.62
2018-08-10T03:02:48.039Z,21.67
2018-08-10T03:05:17.427Z,21.81
2018-08-10T03:07:47.790Z,21.87
2018-08-10T03:10:17.247Z,21.88
2018-08-10T03:12:46.639Z,21.86
2018-08-10T03:15:16.698Z,21.79
2018-08-10T03:17:46.709Z,21.68
2018-08-10T03:20:15.827Z,21.59
2018-08-10T03:22:44.728Z,21.45
2018-08-10T03:25:15.360Z,21.36
2018-08-10T03:27:44.710Z,21.24
2018-08-10T03:30:13.961Z,21.15
2018-08-10T03:32:42.723Z,21.06
2018-08-10T03:35:11.614Z,20.95
2018-08-10T03:37:41.114Z,20.83
2018-08-10T03:40:12.366Z,20.70
2018-08-10T03:42:41.175Z,20.62
2018-08-10T03:45:10.426Z,20.55
2018-08-10T03:47:40.268Z,20.52
2018-08-10T03:50:10.549Z,20.48
2018-08-10T03:52:40.151Z,20.44
2018-08-10T03:55:09.496Z,20.42
2018-08-10T03:57:39.107Z,20.43
2018-08-10T04:00:09.668Z,20.48
2018-08-10T04:02:39.421Z,20.55
2018-08-10T04:05:10.667Z,20.66
2018-08-10T04:07:40.362Z,20.70
2018-08-10T04:10:10.000Z,20.74
2018-08-10T04:12:39.195Z,20.77
2018-08-10T04:15:12.403Z,20.81
2018-08-10T04:17:41.802Z,20.80
2018-08-10T04:20:11.075Z,20.79
2018-08-10T04:22:39.847Z,20.79
2018-08-10T04:25:09.154Z,20.81
2018-08-10T04:27:38.434Z,20.80
2018-08-10T04:30:08.556Z,20.83
2018-08-10T04:32:37.328Z,20.91
2018-08-10T04:35:06.196Z,20.98
2018-08-10T04:37:35.773Z,21.07
2018-08-10T04:40:05.525Z,21.13
2018-08-10T04:42:34.266Z,21.18
2018-08-10T04:45:03.066Z,21.23
2018-08-10T04:47:32.436Z,21.24
2018-08-10T04:50:01.149Z,21.25
2018-08-10T04:52:30.526Z,21.28
2018-08-10T04:54:59.299Z,21.31
2018-08-10T04:57:28.605Z,21.34
2018-08-10T04:59:57.364Z,21.38
2018-08-10T05:02:26.680Z,21.42
2018-08-10T05:04:55.446Z,21.49
2018-08-10T05:07:24.207Z,21.55
2018-08-10T05:09:53.027Z,21.61
2018-08-10T05:12:21.773Z,21.66
2018-08-10T05:14:50.612Z,21.72
2018-08-10T05:17:20.123Z,21.76
2018-08-10T05:19:49.015Z,21.81
2018-08-10T05:22:18.677Z,21.89
2018-08-10T05:24:48.379Z,21.96
2018-08-10T05:27:17.904Z,22.03
2018-08-10T05:29:47.412Z,22.10
2018-08-10T05:32:16.701Z,22.19
2018-08-10T05:34:45.745Z,22.21
2018-08-10T05:37:14.933Z,22.29
2018-08-10T05:39:44.428Z,22.35
2018-08-10T05:42:13.351Z,22.47
2018-08-10T05:44:42.084Z,22.63
2018-08-10T05:47:10.938Z,22.74
2018-08-10T05:49:40.637Z,22.85
2018-08-10T05:52:09.967Z,22.96
2018-08-10T05:54:38.714Z,23.13
2018-08-10T05:57:08.145Z,23.25
2018-08-10T05:59:36.904Z,23.39
2018-08-10T06:02:06.273Z,23.43
2018-08-10T06:04:35.096Z,23.48
2018-08-10T06:07:04.307Z,23.58
2018-08-10T06:09:33.450Z,23.71
2018-08-10T06:12:02.321Z,23.87
2018-08-10T06:14:31.053Z,24.04
2018-08-10T06:17:00.612Z,24.13
2018-08-10T06:19:29.469Z,24.19
2018-08-10T06:21:58.205Z,24.22
2018-08-10T06:24:27.659Z,24.23
2018-08-10T06:26:56.948Z,24.33
2018-08-10T06:29:26.085Z,24.41
2018-08-10T06:31:54.878Z,24.44
2018-08-10T06:34:24.024Z,24.40
2018-08-10T06:36:52.864Z,24.36
2018-08-10T06:39:22.293Z,24.31
2018-08-10T06:41:51.023Z,24.30
2018-08-10T06:44:19.844Z,24.38
2018-08-10T06:46:48.756Z,24.42
2018-08-10T06:49:19.108Z,24.55
2018-08-10T06:51:48.665Z,24.66
2018-08-10T06:54:17.680Z,24.76
2018-08-10T06:56:47.243Z,24.85
2018-08-10T06:59:16.323Z,24.99
2018-08-10T07:01:45.299Z,25.11
2018-08-10T07:04:14.809Z,25.20
2018-08-10T07:06:43.562Z,25.32
2018-08-10T07:09:13.498Z,25.37
2018-08-10T07:11:42.267Z,25.32
2018-08-10T07:14:11.060Z,25.16
2018-08-10T07:16:40.545Z,25.14
2018-08-10T07:19:09.472Z,25.15
2018-08-10T07:21:38.200Z,25.24
2018-08-10T07:24:08.268Z,25.29
2018-08-10T07:26:37.810Z,25.32
2018-08-10T07:29:07.736Z,25.34
2018-08-10T07:31:36.486Z,25.44
2018-08-10T07:34:05.346Z,25.49
2018-08-10T07:36:34.124Z,25.52
2018-08-10T07:39:03.816Z,25.56
2018-08-10T07:41:32.526Z,25.62
2018-08-10T07:44:01.315Z,25.72
2018-08-10T07:46:30.105Z,25.76
2018-08-10T07:48:59.249Z,25.82
2018-08-10T07:51:28.600Z,25.86
2018-08-10T07:53:57.363Z,25.98
2018-08-10T07:56:26.791Z,26.21
2018-08-10T07:58:55.542Z,26.40
2018-08-10T08:01:24.327Z,26.45
2018-08-10T08:03:54.591Z,26.46
2018-08-10T08:06:23.413Z,26.50
2018-08-10T08:08:52.221Z,26.55
2018-08-10T08:11:21.158Z,26.50
2018-08-10T08:13:50.089Z,26.56
2018-08-10T08:16:19.533Z,26.76
2018-08-10T08:18:48.367Z,26.87
2018-08-10T08:21:17.775Z,26.79
2018-08-10T08:23:47.515Z,26.89
2018-08-10T08:26:16.430Z,26.93
2018-08-10T08:28:46.080Z,26.88
2018-08-10T08:31:14.903Z,26.98
2018-08-10T08:33:54.867Z,27.02
2018-08-10T08:36:24.431Z,26.81
2018-08-10T08:39:30.264Z,26.54
2018-08-10T08:41:59.055Z,26.34
2018-08-10T08:45:37.919Z,26.28
2018-08-10T08:48:07.708Z,26.35
2018-08-10T08:50:39.151Z,26.38
2018-08-10T08:53:08.028Z,26.47
2018-08-10T08:55:44.761Z,26.55
2018-08-10T08:58:13.616Z,26.59
2018-08-10T09:00:42.456Z,26.69
2018-08-10T09:03:23.311Z,26.86
2018-08-10T09:05:52.301Z,27.02
2018-08-10T09:08:21.080Z,26.97
2018-08-10T09:10:49.938Z,27.03
2018-08-10T09:13:18.933Z,27.02
2018-08-10T09:15:48.159Z,26.95
2018-08-10T09:18:18.004Z,26.92
2018-08-10T09:20:46.980Z,26.81
2018-08-10T09:23:16.843Z,26.76
2018-08-10T09:25:45.866Z,26.80
2018-08-10T09:28:16.278Z,26.90
2018-08-10T09:30:45.793Z,27.03
2018-08-10T09:33:14.528Z,27.13
2018-08-10T09:35:43.515Z,27.02
2018-08-10T09:38:12.973Z,26.92
2018-08-10T09:40:41.875Z,26.87
2018-08-10T09:43:10.600Z,26.98
2018-08-10T09:45:39.427Z,27.16
2018-08-10T09:48:09.414Z,27.29
2018-08-10T09:50:38.864Z,27.40
2018-08-10T09:53:07.672Z,27.37
2018-08-10T09:55:37.835Z,27.31
2018-08-10T09:58:13.209Z,27.29
2018-08-10T10:00:47.279Z,27.40
2018-08-10T10:03:22.851Z,27.44
2018-08-10T10:05:52.660Z,27.55
2018-08-10T10:08:21.899Z,27.46
2018-08-10T10:10:50.793Z,27.28
2018-08-10T10:13:19.659Z,27.23
2018-08-10T10:15:48.657Z,27.25
2018-08-10T10:18:18.883Z,27.32
2018-08-10T10:20:48.579Z,27.43
2018-08-10T10:23:18.638Z,27.54
2018-08-10T10:25:47.906Z,27.49
2018-08-10T10:28:17.560Z,27.59
2018-08-10T10:30:46.588Z,27.53
2018-08-10T10:33:15.620Z,27.58
2018-08-10T10:35:44.460Z,27.59
2018-08-10T10:38:14.016Z,27.66
2018-08-10T10:40:42.846Z,27.75
2018-08-10T10:43:11.593Z,27.71
2018-08-10T10:45:40.363Z,27.83
2018-08-10T10:48:10.104Z,28.02
2018-08-10T10:50:39.436Z,28.32
2018-08-10T10:53:08.239Z,28.43
2018-08-10T10:55:37.728Z,28.43
2018-08-10T10:58:06.432Z,28.61
2018-08-10T11:00:35.272Z,28.68
2018-08-10T11:03:04.630Z,28.62
2018-08-10T11:05:33.667Z,28.54
2018-08-10T11:08:02.449Z,28.45
2018-08-10T11:10:31.623Z,28.31
2018-08-10T11:13:00.385Z,28.32
2018-08-10T11:15:29.344Z,28.28
2018-08-10T11:17:58.727Z,28.32
2018-08-10T11:20:27.483Z,28.27
2018-08-10T11:22:56.876Z,28.08
2018-08-10T11:25:25.887Z,27.91
2018-08-10T11:27:55.165Z,27.76
2018-08-10T11:30:23.994Z,27.69
2018-08-10T11:32:52.844Z,27.61
2018-08-10T11:35:21.683Z,27.74
2018-08-10T11:37:51.465Z,27.76
2018-08-10T11:40:20.329Z,27.83
2018-08-10T11:42:49.135Z,27.92
2018-08-10T11:45:18.770Z,28.07
2018-08-10T11:47:48.512Z,28.25
2018-08-10T11:50:19.661Z,28.46
2018-08-10T11:52:49.371Z,28.69
2018-08-10T11:55:18.395Z,28.75
2018-08-10T11:57:48.172Z,28.83
2018-08-10T12:00:17.696Z,28.87
2018-08-10T12:02:48.109Z,28.88
2018-08-10T12:05:17.456Z,28.83
2018-08-10T12:07:46.432Z,28.75
2018-08-10T12:10:15.372Z,28.79
2018-08-10T12:12:44.126Z,28.89
2018-08-10T12:15:14.052Z,28.73
2018-08-10T12:17:43.584Z,28.62
2018-08-10T12:20:12.374Z,28.44
2018-08-10T12:22:41.936Z,28.36
2018-08-10T12:25:11.557Z,28.15
2018-08-10T12:27:41.226Z,27.97
2018-08-10T12:30:12.124Z,27.91
2018-08-10T12:32:40.947Z,27.89
2018-08-10T12:35:10.350Z,27.92
2018-08-10T12:37:39.607Z,28.09
2018-08-10T12:40:08.695Z,28.14
2018-08-10T12:42:37.798Z,28.28
2018-08-10T12:45:06.672Z,28.32
2018-08-10T12:47:36.383Z,28.34
2018-08-10T12:50:05.960Z,28.40
2018-08-10T12:52:35.576Z,28.49
2018-08-10T12:55:04.461Z,28.47
2018-08-10T12:57:34.014Z,28.32
2018-08-10T13:00:02.866Z,28.16
2018-08-10T13:02:33.435Z,28.21
2018-08-10T13:05:02.276Z,28.15
2018-08-10T13:07:31.028Z,28.05
2018-08-10T13:09:59.768Z,27.88
2018-08-10T13:12:28.486Z,27.83
2018-08-10T13:14:58.391Z,27.85
2018-08-10T13:17:28.110Z,27.86
2018-08-10T13:19:56.848Z,27.77
2018-08-10T13:22:25.585Z,27.80
2018-08-10T13:24:55.053Z,27.71
2018-08-10T13:27:24.369Z,27.69
2018-08-10T13:29:53.855Z,27.60
2018-08-10T13:32:22.640Z,27.58
2018-08-10T13:34:51.482Z,27.59
2018-08-10T13:37:20.289Z,27.51
2018-08-10T13:39:49.531Z,27.38
2018-08-10T13:42:18.449Z,27.23
2018-08-10T13:44:48.176Z,27.16
2018-08-10T13:47:17.714Z,27.05
2018-08-10T13:49:49.840Z,26.85
2018-08-10T13:52:19.050Z,26.51
2018-08-10T13:54:48.660Z,26.19
2018-08-10T13:57:18.759Z,26.01
2018-08-10T13:59:48.321Z,26.00
2018-08-10T14:02:18.486Z,26.08
2018-08-10T14:04:50.403Z,26.18
2018-08-10T14:07:19.206Z,26.19
2018-08-10T14:09:48.389Z,26.25
2018-08-10T14:12:17.544Z,26.26
2018-08-10T14:14:47.810Z,26.28
2018-08-10T14:17:19.235Z,26.41
2018-08-10T14:19:48.249Z,26.56
2018-08-10T14:22:18.628Z,26.71
2018-08-10T14:24:47.737Z,26.79
2018-08-10T14:27:17.846Z,26.80
2018-08-10T14:29:48.039Z,26.80
2018-08-10T14:32:17.340Z,26.80
2018-08-10T14:34:46.379Z,26.69
2018-08-10T14:37:16.754Z,26.53
2018-08-10T14:39:46.890Z,26.37
2018-08-10T14:42:16.496Z,26.25
2018-08-10T14:44:46.070Z,26.16
2018-08-10T14:47:15.132Z,26.12
2018-08-10T14:49:44.596Z,26.07
2018-08-10T14:52:14.097Z,26.10
2018-08-10T14:54:42.874Z,26.14
2018-08-10T14:57:12.217Z,26.09
2018-08-10T14:59:41.007Z,26.05
2018-08-10T15:02:10.556Z,26.05
2018-08-10T15:04:39.984Z,26.00
2018-08-10T15:07:08.825Z,25.90
2018-08-10T15:09:37.552Z,25.79
2018-08-10T15:12:06.621Z,25.61
2018-08-10T15:14:35.315Z,25.45
2018-08-10T15:17:04.879Z,25.32
2018-08-10T15:19:33.634Z,25.11
2018-08-10T15:22:03.016Z,24.87
2018-08-10T15:24:31.806Z,24.70
2018-08-10T15:27:01.223Z,24.47
2018-08-10T15:29:30.789Z,24.33
2018-08-10T15:32:00.466Z,24.22
2018-08-10T15:34:29.412Z,24.26
2018-08-10T15:36:58.347Z,24.41
2018-08-10T15:39:27.732Z,24.82
2018-08-10T15:41:56.792Z,25.28
2018-08-10T15:44:25.594Z,25.75
2018-08-10T15:46:54.384Z,26.04
2018-08-10T15:49:23.838Z,26.52
2018-08-10T15:51:53.122Z,26.49
2018-08-10T15:54:21.899Z,26.19
2018-08-10T15:56:51.619Z,26.31
2018-08-10T15:59:20.354Z,26.71
2018-08-10T16:01:51.063Z,27.23
2018-08-10T16:04:20.368Z,27.19
2018-08-10T16:06:49.161Z,27.41
2018-08-10T16:09:18.307Z,27.69
2018-08-10T16:11:47.487Z,27.64
2018-08-10T16:14:16.472Z,27.71
2018-08-10T16:16:46.578Z,27.41
2018-08-10T16:19:17.023Z,27.50
2018-08-10T16:21:46.594Z,27.20
2018-08-10T16:24:15.531Z,26.85
2018-08-10T16:27:12.867Z,26.44
2018-08-10T16:29:42.469Z,26.01
2018-08-10T16:32:11.272Z,26.15
2018-08-10T16:34:40.755Z,26.58
2018-08-10T16:37:09.590Z,26.91
2018-08-10T16:39:39.075Z,26.87
2018-08-10T16:42:07.885Z,26.63
2018-08-10T16:44:37.478Z,26.55
2018-08-10T16:47:06.297Z,26.49
2018-08-10T16:49:35.675Z,26.10
2018-08-10T16:52:05.292Z,25.53
2018-08-10T16:54:34.080Z,25.35
2018-08-10T16:57:03.635Z,25.45
2018-08-10T16:59:32.450Z,25.68
2018-08-10T17:02:01.718Z,25.69
2018-08-10T17:04:31.280Z,25.83
2018-08-10T17:07:00.164Z,25.97
2018-08-10T17:09:28.963Z,26.34
2018-08-10T17:11:57.848Z,26.25
2018-08-10T17:14:26.674Z,26.27
2018-08-10T17:16:56.314Z,26.39
2018-08-10T17:19:25.153Z,25.81
2018-08-10T17:21:54.852Z,25.39
2018-08-10T17:24:23.712Z,24.82
2018-08-10T17:26:53.163Z,24.99
2018-08-10T17:29:22.474Z,24.77
2018-08-10T17:31:52.238Z,24.09
2018-08-10T17:34:21.227Z,23.70
2018-08-10T17:36:49.963Z,23.54
2018-08-10T17:39:19.669Z,23.19
2018-08-10T17:41:48.959Z,22.84
2018-08-10T17:44:17.887Z,22.65
2018-08-10T17:46:46.910Z,22.38
2018-08-10T17:49:16.482Z,22.17
2018-08-10T17:51:46.262Z,21.96
2018-08-10T17:54:15.150Z,21.74
2018-08-10T17:56:44.648Z,21.49
2018-08-10T17:59:13.499Z,21.45
2018-08-10T18:01:42.211Z,21.46
2018-08-10T18:04:11.645Z,21.52
2018-08-10T18:06:40.418Z,21.96
2018-08-10T18:09:10.511Z,22.28
2018-08-10T18:11:39.781Z,22.53
2018-08-10T18:14:09.450Z,22.69
2018-08-10T18:16:38.790Z,22.75
2018-08-10T18:19:07.648Z,22.50
2018-08-10T18:21:36.982Z,22.08
2018-08-10T18:24:05.807Z,21.78
2018-08-10T18:26:34.851Z,21.49
2018-08-10T18:29:04.124Z,21.18
2018-08-10T18:31:33.059Z,20.96
2018-08-10T18:34:01.810Z,20.77
2018-08-10T18:36:31.704Z,20.63
2018-08-10T18:39:01.121Z,20.47
2018-08-10T18:41:30.315Z,20.31
2018-08-10T18:43:59.103Z,20.21
2018-08-10T18:46:28.789Z,20.15
2018-08-10T18:48:58.016Z,20.07
2018-08-10T18:51:27.591Z,20.02
2018-08-10T18:53:56.395Z,19.93
2018-08-10T18:56:25.900Z,19.86
2018-08-10T18:58:55.288Z,19.78
2018-08-10T19:01:24.424Z,19.72
2018-08-10T19:03:53.868Z,19.67
2018-08-10T19:06:23.089Z,19.61
2018-08-10T19:08:51.877Z,19.56
2018-08-10T19:11:20.920Z,19.49
2018-08-10T19:13:49.738Z,19.45
2018-08-10T19:16:19.615Z,19.39
2018-08-10T19:18:48.464Z,19.34
2018-08-10T19:21:18.615Z,19.28
2018-08-10T19:23:48.175Z,19.22
2018-08-10T19:26:17.302Z,19.15
2018-08-10T19:28:46.831Z,19.07
2018-08-10T19:31:15.787Z,19.00
2018-08-10T19:33:45.204Z,18.94
2018-08-10T19:36:13.975Z,18.87
2018-08-10T19:38:43.416Z,18.81
2018-08-10T19:41:12.299Z,18.74
2018-08-10T19:43:41.073Z,18.68
2018-08-10T19:46:09.931Z,18.63
2018-08-10T19:48:39.178Z,18.56
2018-08-10T19:51:08.411Z,18.52
2018-08-10T19:53:37.890Z,18.48
2018-08-10T19:56:07.330Z,18.47
2018-08-10T19:58:36.511Z,18.44
2018-08-10T20:01:05.440Z,18.43
2018-08-10T20:03:34.682Z,18.42
2018-08-10T20:06:03.453Z,18.42
2018-08-10T20:08:32.665Z,18.41
2018-08-10T20:11:01.457Z,18.40
2018-08-10T20:13:30.259Z,18.38
2018-08-10T20:15:59.294Z,18.38
2018-08-10T20:18:29.251Z,18.38
2018-08-10T20:20:57.998Z,18.36
2018-08-10T20:23:27.396Z,18.37
2018-08-10T20:25:56.292Z,18.36
2018-08-10T20:28:25.900Z,18.35
2018-08-10T20:30:54.748Z,18.34
2018-08-10T20:33:23.535Z,18.34
2018-08-10T20:35:52.431Z,18.33
2018-08-10T20:38:22.043Z,18.31
2018-08-10T20:40:50.995Z,18.29
2018-08-10T20:43:19.794Z,18.24
2018-08-10T20:45:48.647Z,18.17
2018-08-10T20:48:18.405Z,18.08
2018-08-10T20:50:50.411Z,17.99
2018-08-10T20:53:19.246Z,17.94
2018-08-10T20:55:48.636Z,17.89
2018-08-10T20:58:18.164Z,17.86
2018-08-10T21:00:47.535Z,17.83
2018-08-10T21:03:17.337Z,17.80
2018-08-10T21:05:47.219Z,17.79
2018-08-10T21:08:16.305Z,17.76
2018-08-10T21:10:45.863Z,17.75
2018-08-10T21:13:15.002Z,17.74
2018-08-10T21:15:43.915Z,17.71
2018-08-10T21:18:13.599Z,17.67
2018-08-10T21:20:42.379Z,17.62
2018-08-10T21:23:11.227Z,17.58
2018-08-10T21:25:40.074Z,17.51
2018-08-10T21:28:09.556Z,17.45
2018-08-10T21:30:39.379Z,17.38
2018-08-10T21:33:08.215Z,17.34
2018-08-10T21:35:36.987Z,17.30
2018-08-10T21:38:07.384Z,17.28
2018-08-10T21:40:36.215Z,17.24
2018-08-10T21:43:05.044Z,17.22
2018-08-10T21:45:34.621Z,17.20
2018-08-10T21:48:04.205Z,17.18
2018-08-10T21:50:33.449Z,17.16
2018-08-10T21:53:03.187Z,17.11
2018-08-10T21:55:32.887Z,17.07
2018-08-10T21:58:02.530Z,17.02
2018-08-10T22:00:56.564Z,17.01
2018-08-10T22:03:26.244Z,17.00
2018-08-10T22:05:55.032Z,16.98
2018-08-10T22:08:24.345Z,16.97
2018-08-10T22:10:53.278Z,16.94
2018-08-10T22:13:27.282Z,16.93
2018-08-10T22:16:01.404Z,16.91
2018-08-10T22:19:39.296Z,16.90
2018-08-10T22:22:08.587Z,16.88
2018-08-10T22:24:37.452Z,16.86
2018-08-10T22:27:06.776Z,16.85
2018-08-10T22:29:36.056Z,16.81
2018-08-10T22:32:04.851Z,16.79
2018-08-10T22:34:33.737Z,16.79
2018-08-10T22:37:02.599Z,16.76
2018-08-10T22:39:32.764Z,16.76
2018-08-10T22:42:01.534Z,16.73
2018-08-10T22:44:30.403Z,16.72
2018-08-10T22:46:59.180Z,16.71
2018-08-10T22:49:28.407Z,16.70
2018-08-10T22:51:58.037Z,16.69
2018-08-10T22:54:27.057Z,16.68
2018-08-10T22:56:56.585Z,16.65
2018-08-10T22:59:25.403Z,16.64
2018-08-10T23:01:54.783Z,16.61
2018-08-10T23:04:24.033Z,16.60
2018-08-10T23:06:52.869Z,16.59
2018-08-10T23:09:22.201Z,16.55
2018-08-10T23:11:51.052Z,16.53
2018-08-10T23:14:20.742Z,16.51
2018-08-10T23:16:50.317Z,16.48
2018-08-10T23:19:19.119Z,16.46
2018-08-10T23:21:49.067Z,16.45
2018-08-10T23:24:18.170Z,16.42
2018-08-10T23:26:47.957Z,16.39
2018-08-10T23:29:17.843Z,16.34
2018-08-10T23:31:46.874Z,16.33
2018-08-10T23:34:15.974Z,16.27
2018-08-10T23:36:44.865Z,16.24
2018-08-10T23:39:14.565Z,16.23
2018-08-10T23:41:43.403Z,16.21
2018-08-10T23:44:12.241Z,16.18
2018-08-10T23:46:41.122Z,16.15
2018-08-10T23:49:11.003Z,16.13
2018-08-10T23:51:40.874Z,16.12
2018-08-10T23:54:09.637Z,16.09
2018-08-10T23:56:39.000Z,16.07
2018-08-10T23:59:08.360Z,16.04
